sensor_id;sensor_type;location;lat;lon;timestamp;noise_LAeq;noise_LA_min;noise_LA_max;noise_LA01;noise_LA95
72415;Laerm;60995;52.154;4.498;2023-06-01T00:00:24;41.28;35.89;62.55;;
72415;Laerm;60995;52.154;4.498;2023-06-01T00:02:41;41.74;36.73;52.02;;
72415;Laerm;60995;52.154;4.498;2023-06-01T00:04:57;43.90;36.85;64.11;;
72415;Laerm;60995;52.154;4.498;2023-06-01T00:07:14;42.14;36.63;63.62;;
72415;Laerm;60995;52.154;4.498;2023-06-01T00:09:30;41.36;36.18;56.85;;
72415;Laerm;60995;52.154;4.498;2023-06-01T00:11:46;41.26;36.34;54.35;;
72415;Laerm;60995;52.154;4.498;2023-06-01T00:14:03;40.66;35.92;49.56;;
72415;Laerm;60995;52.154;4.498;2023-06-01T00:16:19;42.40;36.12;51.24;;
72415;Laerm;60995;52.154;4.498;2023-06-01T00:18:35;42.02;36.09;56.64;;
72415;Laerm;60995;52.154;4.498;2023-06-01T00:20:52;45.56;37.14;70.09;;
72415;Laerm;60995;52.154;4.498;2023-06-01T00:23:08;40.73;35.96;50.55;;
72415;Laerm;60995;52.154;4.498;2023-06-01T00:25:25;41.49;36.42;52.42;;
72415;Laerm;60995;52.154;4.498;2023-06-01T00:27:41;43.02;36.63;61.31;;
72415;Laerm;60995;52.154;4.498;2023-06-01T00:29:57;41.38;36.98;55.39;;
72415;Laerm;60995;52.154;4.498;2023-06-01T00:32:14;41.67;36.08;55.92;;
72415;Laerm;60995;52.154;4.498;2023-06-01T00:34:30;43.08;36.23;55.69;;
72415;Laerm;60995;52.154;4.498;2023-06-01T00:36:47;41.32;36.24;62.45;;
72415;Laerm;60995;52.154;4.498;2023-06-01T00:39:03;41.47;35.75;52.06;;
72415;Laerm;60995;52.154;4.498;2023-06-01T00:41:20;40.59;36.25;51.39;;
72415;Laerm;60995;52.154;4.498;2023-06-01T00:43:37;41.14;36.09;61.39;;
72415;Laerm;60995;52.154;4.498;2023-06-01T00:45:53;41.27;36.15;52.90;;
72415;Laerm;60995;52.154;4.498;2023-06-01T00:48:15;41.00;35.92;56.59;;
72415;Laerm;60995;52.154;4.498;2023-06-01T00:50:32;41.71;36.08;51.36;;
72415;Laerm;60995;52.154;4.498;2023-06-01T00:52:51;42.02;36.91;58.04;;
72415;Laerm;60995;52.154;4.498;2023-06-01T00:55:09;43.61;36.65;55.77;;
72415;Laerm;60995;52.154;4.498;2023-06-01T00:57:27;43.92;36.47;57.79;;
72415;Laerm;60995;52.154;4.498;2023-06-01T00:59:44;41.73;36.23;58.84;;
72415;Laerm;60995;52.154;4.498;2023-06-01T01:02:01;44.05;36.37;62.77;;
72415;Laerm;60995;52.154;4.498;2023-06-01T01:04:20;41.65;36.40;59.83;;
72415;Laerm;60995;52.154;4.498;2023-06-01T01:07:09;43.61;36.59;54.91;;
72415;Laerm;60995;52.154;4.498;2023-06-01T01:09:44;42.38;36.92;54.20;;
72415;Laerm;60995;52.154;4.498;2023-06-01T01:12:23;42.23;36.33;58.72;;
72415;Laerm;60995;52.154;4.498;2023-06-01T01:15:07;44.87;36.33;70.44;;
72415;Laerm;60995;52.154;4.498;2023-06-01T01:17:42;43.46;36.75;58.80;;
72415;Laerm;60995;52.154;4.498;2023-06-01T01:20:10;49.71;36.67;76.17;;
72415;Laerm;60995;52.154;4.498;2023-06-01T01:23:14;42.97;36.92;55.98;;
72415;Laerm;60995;52.154;4.498;2023-06-01T01:28:47;42.92;36.70;62.96;;
72415;Laerm;60995;52.154;4.498;2023-06-01T01:31:05;44.30;36.85;64.86;;
72415;Laerm;60995;52.154;4.498;2023-06-01T01:33:27;43.36;36.21;59.79;;
72415;Laerm;60995;52.154;4.498;2023-06-01T01:35:44;42.07;35.53;61.44;;
72415;Laerm;60995;52.154;4.498;2023-06-01T01:38:01;44.70;37.45;61.47;;
72415;Laerm;60995;52.154;4.498;2023-06-01T01:40:18;42.06;36.50;62.83;;
72415;Laerm;60995;52.154;4.498;2023-06-01T01:42:34;42.03;36.07;57.46;;
72415;Laerm;60995;52.154;4.498;2023-06-01T01:44:51;41.75;35.78;61.04;;
72415;Laerm;60995;52.154;4.498;2023-06-01T01:47:34;43.12;35.94;62.01;;
72415;Laerm;60995;52.154;4.498;2023-06-01T01:49:58;41.34;36.01;62.87;;
72415;Laerm;60995;52.154;4.498;2023-06-01T01:52:22;40.75;35.91;48.51;;
72415;Laerm;60995;52.154;4.498;2023-06-01T01:54:45;42.46;35.77;60.93;;
72415;Laerm;60995;52.154;4.498;2023-06-01T01:57:08;41.28;36.18;63.69;;
72415;Laerm;60995;52.154;4.498;2023-06-01T01:59:26;41.36;36.13;60.68;;
72415;Laerm;60995;52.154;4.498;2023-06-01T02:01:43;41.39;36.14;54.25;;
72415;Laerm;60995;52.154;4.498;2023-06-01T02:04:03;42.16;36.62;60.57;;
72415;Laerm;60995;52.154;4.498;2023-06-01T02:06:19;40.88;35.71;50.55;;
72415;Laerm;60995;52.154;4.498;2023-06-01T02:08:36;41.13;35.43;63.28;;
72415;Laerm;60995;52.154;4.498;2023-06-01T02:10:52;40.37;36.12;48.40;;
72415;Laerm;60995;52.154;4.498;2023-06-01T02:13:09;40.78;36.35;64.73;;
72415;Laerm;60995;52.154;4.498;2023-06-01T02:15:27;42.94;36.27;51.76;;
72415;Laerm;60995;52.154;4.498;2023-06-01T02:17:44;41.52;35.56;65.63;;
72415;Laerm;60995;52.154;4.498;2023-06-01T02:20:03;42.72;36.27;56.94;;
72415;Laerm;60995;52.154;4.498;2023-06-01T02:22:20;41.41;36.13;51.03;;
72415;Laerm;60995;52.154;4.498;2023-06-01T02:24:36;41.21;36.31;61.13;;
72415;Laerm;60995;52.154;4.498;2023-06-01T02:26:53;42.10;36.29;52.01;;
72415;Laerm;60995;52.154;4.498;2023-06-01T02:29:10;41.27;36.32;64.14;;
72415;Laerm;60995;52.154;4.498;2023-06-01T02:31:28;41.42;36.16;62.52;;
72415;Laerm;60995;52.154;4.498;2023-06-01T02:33:45;40.86;36.20;50.36;;
72415;Laerm;60995;52.154;4.498;2023-06-01T02:36:02;42.01;36.05;51.82;;
72415;Laerm;60995;52.154;4.498;2023-06-01T02:38:18;42.62;36.62;54.00;;
72415;Laerm;60995;52.154;4.498;2023-06-01T02:40:36;42.40;37.28;65.49;;
72415;Laerm;60995;52.154;4.498;2023-06-01T02:42:52;43.38;36.41;62.53;;
72415;Laerm;60995;52.154;4.498;2023-06-01T02:45:09;43.20;36.90;56.44;;
72415;Laerm;60995;52.154;4.498;2023-06-01T02:47:26;43.60;36.08;66.30;;
72415;Laerm;60995;52.154;4.498;2023-06-01T02:49:42;42.11;36.69;50.75;;
72415;Laerm;60995;52.154;4.498;2023-06-01T02:51:59;42.04;36.48;53.51;;
72415;Laerm;60995;52.154;4.498;2023-06-01T02:54:15;42.01;36.76;50.98;;
72415;Laerm;60995;52.154;4.498;2023-06-01T02:56:32;43.92;37.06;62.53;;
72415;Laerm;60995;52.154;4.498;2023-06-01T02:58:48;45.42;36.60;58.28;;
72415;Laerm;60995;52.154;4.498;2023-06-01T03:01:05;42.80;37.03;61.03;;
72415;Laerm;60995;52.154;4.498;2023-06-01T03:03:25;43.33;37.18;53.38;;
72415;Laerm;60995;52.154;4.498;2023-06-01T03:05:41;42.09;36.48;63.19;;
72415;Laerm;60995;52.154;4.498;2023-06-01T03:07:59;43.62;36.91;52.86;;
72415;Laerm;60995;52.154;4.498;2023-06-01T03:10:15;46.32;37.74;68.86;;
72415;Laerm;60995;52.154;4.498;2023-06-01T03:12:33;45.98;37.00;61.42;;
72415;Laerm;60995;52.154;4.498;2023-06-01T03:14:49;47.06;37.54;63.77;;
72415;Laerm;60995;52.154;4.498;2023-06-01T03:17:06;43.80;37.56;58.30;;
72415;Laerm;60995;52.154;4.498;2023-06-01T03:19:22;43.18;37.49;62.65;;
72415;Laerm;60995;52.154;4.498;2023-06-01T03:21:38;45.01;38.06;64.60;;
72415;Laerm;60995;52.154;4.498;2023-06-01T03:23:55;44.43;37.55;64.62;;
72415;Laerm;60995;52.154;4.498;2023-06-01T03:26:12;42.93;37.18;65.00;;
72415;Laerm;60995;52.154;4.498;2023-06-01T03:28:28;46.43;37.45;62.59;;
72415;Laerm;60995;52.154;4.498;2023-06-01T03:30:45;51.95;39.15;74.81;;
72415;Laerm;60995;52.154;4.498;2023-06-01T03:33:02;43.30;37.65;60.46;;
72415;Laerm;60995;52.154;4.498;2023-06-01T03:35:19;42.38;37.59;64.94;;
72415;Laerm;60995;52.154;4.498;2023-06-01T03:37:38;44.00;37.81;57.41;;
72415;Laerm;60995;52.154;4.498;2023-06-01T03:39:54;45.36;38.23;56.00;;
72415;Laerm;60995;52.154;4.498;2023-06-01T03:42:15;44.99;37.60;61.09;;
72415;Laerm;60995;52.154;4.498;2023-06-01T03:44:31;43.92;37.55;64.10;;
72415;Laerm;60995;52.154;4.498;2023-06-01T03:46:47;45.93;37.40;60.31;;
72415;Laerm;60995;52.154;4.498;2023-06-01T03:49:05;45.93;38.27;62.01;;
72415;Laerm;60995;52.154;4.498;2023-06-01T03:51:22;44.66;37.61;62.48;;
72415;Laerm;60995;52.154;4.498;2023-06-01T03:53:38;44.51;38.50;54.74;;
72415;Laerm;60995;52.154;4.498;2023-06-01T03:55:55;46.82;38.81;57.02;;
72415;Laerm;60995;52.154;4.498;2023-06-01T03:58:12;45.14;38.71;66.12;;
72415;Laerm;60995;52.154;4.498;2023-06-01T04:00:28;48.05;38.60;67.06;;
72415;Laerm;60995;52.154;4.498;2023-06-01T04:02:57;45.58;38.15;65.50;;
72415;Laerm;60995;52.154;4.498;2023-06-01T04:05:15;45.38;38.50;58.78;;
72415;Laerm;60995;52.154;4.498;2023-06-01T04:07:33;45.64;38.67;66.67;;
72415;Laerm;60995;52.154;4.498;2023-06-01T04:09:52;45.97;38.39;65.74;;
72415;Laerm;60995;52.154;4.498;2023-06-01T04:12:10;46.93;38.81;67.35;;
72415;Laerm;60995;52.154;4.498;2023-06-01T04:14:29;52.81;39.13;69.56;;
72415;Laerm;60995;52.154;4.498;2023-06-01T04:16:45;49.73;38.26;66.22;;
72415;Laerm;60995;52.154;4.498;2023-06-01T04:19:02;45.14;38.10;64.96;;
72415;Laerm;60995;52.154;4.498;2023-06-01T04:21:21;47.33;37.48;64.89;;
72415;Laerm;60995;52.154;4.498;2023-06-01T04:23:38;45.97;37.94;55.48;;
72415;Laerm;60995;52.154;4.498;2023-06-01T04:25:55;46.50;39.06;65.69;;
72415;Laerm;60995;52.154;4.498;2023-06-01T04:28:15;48.72;39.75;63.33;;
72415;Laerm;60995;52.154;4.498;2023-06-01T04:30:32;46.82;39.01;63.67;;
72415;Laerm;60995;52.154;4.498;2023-06-01T04:32:49;48.15;39.00;61.16;;
72415;Laerm;60995;52.154;4.498;2023-06-01T04:35:07;47.37;39.37;63.62;;
72415;Laerm;60995;52.154;4.498;2023-06-01T04:37:24;48.23;39.57;62.68;;
72415;Laerm;60995;52.154;4.498;2023-06-01T04:39:40;46.99;39.16;64.65;;
72415;Laerm;60995;52.154;4.498;2023-06-01T04:41:58;48.50;39.27;66.33;;
72415;Laerm;60995;52.154;4.498;2023-06-01T04:44:15;47.46;39.09;63.32;;
72415;Laerm;60995;52.154;4.498;2023-06-01T04:46:32;49.04;38.29;63.32;;
72415;Laerm;60995;52.154;4.498;2023-06-01T04:48:49;49.60;39.20;70.63;;
72415;Laerm;60995;52.154;4.498;2023-06-01T04:51:10;51.59;40.37;65.74;;
72415;Laerm;60995;52.154;4.498;2023-06-01T04:53:28;48.22;39.46;58.94;;
72415;Laerm;60995;52.154;4.498;2023-06-01T04:55:45;60.49;40.67;74.96;;
72415;Laerm;60995;52.154;4.498;2023-06-01T04:58:02;53.92;39.78;67.22;;
72415;Laerm;60995;52.154;4.498;2023-06-01T05:00:20;48.85;38.83;64.96;;
72415;Laerm;60995;52.154;4.498;2023-06-01T05:02:38;47.50;39.46;62.29;;
72415;Laerm;60995;52.154;4.498;2023-06-01T05:05:01;49.15;39.88;64.62;;
72415;Laerm;60995;52.154;4.498;2023-06-01T05:07:19;47.57;38.86;65.27;;
72415;Laerm;60995;52.154;4.498;2023-06-01T05:09:37;47.99;40.18;64.65;;
72415;Laerm;60995;52.154;4.498;2023-06-01T05:11:55;47.00;38.74;64.64;;
72415;Laerm;60995;52.154;4.498;2023-06-01T05:14:13;47.35;38.87;64.96;;
72415;Laerm;60995;52.154;4.498;2023-06-01T05:16:32;48.87;40.75;65.35;;
72415;Laerm;60995;52.154;4.498;2023-06-01T05:18:48;46.95;39.60;62.45;;
72415;Laerm;60995;52.154;4.498;2023-06-01T05:21:05;49.06;39.71;70.76;;
72415;Laerm;60995;52.154;4.498;2023-06-01T05:23:24;47.83;40.32;63.34;;
72415;Laerm;60995;52.154;4.498;2023-06-01T05:25:48;48.29;39.90;64.08;;
72415;Laerm;60995;52.154;4.498;2023-06-01T05:28:07;53.17;40.71;67.93;;
72415;Laerm;60995;52.154;4.498;2023-06-01T05:30:26;54.58;40.77;70.26;;
72415;Laerm;60995;52.154;4.498;2023-06-01T05:32:45;49.75;40.95;61.50;;
72415;Laerm;60995;52.154;4.498;2023-06-01T05:35:04;50.27;42.32;65.58;;
72415;Laerm;60995;52.154;4.498;2023-06-01T05:37:31;50.16;42.81;66.43;;
72415;Laerm;60995;52.154;4.498;2023-06-01T05:39:51;50.70;43.21;59.07;;
72415;Laerm;60995;52.154;4.498;2023-06-01T05:42:10;52.77;42.22;68.29;;
72415;Laerm;60995;52.154;4.498;2023-06-01T05:44:33;50.92;42.49;63.11;;
72415;Laerm;60995;52.154;4.498;2023-06-01T05:46:50;56.62;42.15;73.63;;
72415;Laerm;60995;52.154;4.498;2023-06-01T05:49:09;50.95;42.70;63.67;;
72415;Laerm;60995;52.154;4.498;2023-06-01T05:54:10;51.40;42.40;64.17;;
72415;Laerm;60995;52.154;4.498;2023-06-01T05:56:33;49.18;41.10;64.15;;
72415;Laerm;60995;52.154;4.498;2023-06-01T05:58:50;49.56;40.40;65.51;;
72415;Laerm;60995;52.154;4.498;2023-06-01T06:01:11;51.36;41.67;61.90;;
72415;Laerm;60995;52.154;4.498;2023-06-01T06:03:34;55.55;43.85;72.91;;
72415;Laerm;60995;52.154;4.498;2023-06-01T06:06:14;49.22;41.09;64.42;;
72415;Laerm;60995;52.154;4.498;2023-06-01T06:08:33;59.65;40.50;73.41;;
72415;Laerm;60995;52.154;4.498;2023-06-01T06:14:11;49.08;39.91;57.30;;
72415;Laerm;60995;52.154;4.498;2023-06-01T06:16:48;48.14;40.00;66.73;;
72415;Laerm;60995;52.154;4.498;2023-06-01T06:19:17;51.85;44.97;66.04;;
72415;Laerm;60995;52.154;4.498;2023-06-01T06:21:53;52.23;45.27;62.53;;
72415;Laerm;60995;52.154;4.498;2023-06-01T06:24:14;55.96;46.90;69.94;;
72415;Laerm;60995;52.154;4.498;2023-06-01T06:26:34;51.56;45.61;67.87;;
72415;Laerm;60995;52.154;4.498;2023-06-01T06:29:06;51.10;45.43;65.88;;
72415;Laerm;60995;52.154;4.498;2023-06-01T06:31:29;51.43;45.10;66.97;;
72415;Laerm;60995;52.154;4.498;2023-06-01T06:34:12;52.50;41.96;65.64;;
72415;Laerm;60995;52.154;4.498;2023-06-01T06:36:34;51.58;40.89;65.53;;
72415;Laerm;60995;52.154;4.498;2023-06-01T06:38:57;49.17;43.10;66.95;;
72415;Laerm;60995;52.154;4.498;2023-06-01T06:41:25;48.72;41.57;65.93;;
72415;Laerm;60995;52.154;4.498;2023-06-01T06:44:16;48.45;41.83;56.93;;
72415;Laerm;60995;52.154;4.498;2023-06-01T06:53:34;52.56;42.41;65.38;;
72415;Laerm;60995;52.154;4.498;2023-06-01T06:55:57;49.49;39.39;60.79;;
72415;Laerm;60995;52.154;4.498;2023-06-01T06:58:17;51.10;42.29;66.70;;
72415;Laerm;60995;52.154;4.498;2023-06-01T07:00:51;50.22;42.45;65.94;;
72415;Laerm;60995;52.154;4.498;2023-06-01T07:03:18;48.53;41.41;56.86;;
72415;Laerm;60995;52.154;4.498;2023-06-01T07:05:41;51.44;41.46;63.12;;
72415;Laerm;60995;52.154;4.498;2023-06-01T07:08:01;49.49;41.44;64.83;;
72415;Laerm;60995;52.154;4.498;2023-06-01T07:10:38;49.85;39.69;63.71;;
72415;Laerm;60995;52.154;4.498;2023-06-01T07:13:02;49.56;40.89;58.90;;
72415;Laerm;60995;52.154;4.498;2023-06-01T07:15:22;54.00;40.94;72.42;;
72415;Laerm;60995;52.154;4.498;2023-06-01T07:17:40;48.75;39.83;65.11;;
72415;Laerm;60995;52.154;4.498;2023-06-01T07:20:01;51.02;41.60;66.18;;
72415;Laerm;60995;52.154;4.498;2023-06-01T07:22:20;50.30;40.30;67.78;;
72415;Laerm;60995;52.154;4.498;2023-06-01T07:24:37;49.54;41.33;62.32;;
72415;Laerm;60995;52.154;4.498;2023-06-01T07:26:54;48.90;40.09;63.12;;
72415;Laerm;60995;52.154;4.498;2023-06-01T07:29:14;51.62;41.18;69.40;;
72415;Laerm;60995;52.154;4.498;2023-06-01T07:31:35;61.93;40.80;76.90;;
72415;Laerm;60995;52.154;4.498;2023-06-01T07:33:53;49.27;41.60;59.93;;
72415;Laerm;60995;52.154;4.498;2023-06-01T07:36:12;49.68;42.33;61.20;;
72415;Laerm;60995;52.154;4.498;2023-06-01T07:38:28;51.04;40.63;64.89;;
72415;Laerm;60995;52.154;4.498;2023-06-01T07:40:46;52.11;41.62;62.82;;
72415;Laerm;60995;52.154;4.498;2023-06-01T07:43:02;50.56;39.65;64.59;;
72415;Laerm;60995;52.154;4.498;2023-06-01T07:45:19;48.96;39.52;58.49;;
72415;Laerm;60995;52.154;4.498;2023-06-01T07:47:35;52.08;42.36;68.50;;
72415;Laerm;60995;52.154;4.498;2023-06-01T07:49:52;51.41;41.25;61.51;;
72415;Laerm;60995;52.154;4.498;2023-06-01T07:52:11;50.74;41.68;57.88;;
72415;Laerm;60995;52.154;4.498;2023-06-01T07:54:27;50.54;42.83;62.96;;
72415;Laerm;60995;52.154;4.498;2023-06-01T07:56:44;47.95;39.77;55.90;;
72415;Laerm;60995;52.154;4.498;2023-06-01T07:59:01;49.57;40.00;69.91;;
72415;Laerm;60995;52.154;4.498;2023-06-01T08:01:21;57.83;41.49;72.76;;
72415;Laerm;60995;52.154;4.498;2023-06-01T08:03:43;52.81;42.23;67.92;;
72415;Laerm;60995;52.154;4.498;2023-06-01T08:06:02;48.72;39.61;66.23;;
72415;Laerm;60995;52.154;4.498;2023-06-01T08:08:24;48.03;40.71;61.31;;
72415;Laerm;60995;52.154;4.498;2023-06-01T08:10:42;48.97;40.94;61.29;;
72415;Laerm;60995;52.154;4.498;2023-06-01T08:12:59;51.04;43.96;64.48;;
72415;Laerm;60995;52.154;4.498;2023-06-01T08:15:18;51.37;40.98;62.63;;
72415;Laerm;60995;52.154;4.498;2023-06-01T08:17:38;49.68;40.53;60.67;;
72415;Laerm;60995;52.154;4.498;2023-06-01T08:19:56;52.86;40.07;70.78;;
72415;Laerm;60995;52.154;4.498;2023-06-01T08:22:13;47.82;39.71;63.80;;
72415;Laerm;60995;52.154;4.498;2023-06-01T08:24:29;50.27;41.06;60.97;;
72415;Laerm;60995;52.154;4.498;2023-06-01T08:26:48;48.79;40.38;61.64;;
72415;Laerm;60995;52.154;4.498;2023-06-01T08:29:06;49.11;41.03;56.55;;
72415;Laerm;60995;52.154;4.498;2023-06-01T08:31:26;49.30;40.42;59.57;;
72415;Laerm;60995;52.154;4.498;2023-06-01T08:33:45;48.50;41.19;64.93;;
72415;Laerm;60995;52.154;4.498;2023-06-01T08:36:01;53.33;43.01;69.48;;
72415;Laerm;60995;52.154;4.498;2023-06-01T08:38:18;50.44;40.89;64.15;;
72415;Laerm;60995;52.154;4.498;2023-06-01T08:40:37;49.97;41.45;61.72;;
72415;Laerm;60995;52.154;4.498;2023-06-01T08:43:20;53.40;42.99;60.78;;
72415;Laerm;60995;52.154;4.498;2023-06-01T08:45:38;52.04;42.57;65.01;;
72415;Laerm;60995;52.154;4.498;2023-06-01T08:47:58;52.34;43.12;60.98;;
72415;Laerm;60995;52.154;4.498;2023-06-01T08:50:16;52.49;42.21;79.29;;
72415;Laerm;60995;52.154;4.498;2023-06-01T08:52:43;50.46;40.27;57.71;;
72415;Laerm;60995;52.154;4.498;2023-06-01T08:55:01;48.76;40.39;58.67;;
72415;Laerm;60995;52.154;4.498;2023-06-01T08:57:18;49.96;40.53;63.00;;
72415;Laerm;60995;52.154;4.498;2023-06-01T08:59:36;49.37;39.97;58.58;;
72415;Laerm;60995;52.154;4.498;2023-06-01T09:01:57;51.08;42.15;62.16;;
72415;Laerm;60995;52.154;4.498;2023-06-01T09:04:14;51.26;42.48;63.76;;
72415;Laerm;60995;52.154;4.498;2023-06-01T09:06:31;48.30;40.18;57.20;;
72415;Laerm;60995;52.154;4.498;2023-06-01T09:08:47;52.01;42.84;65.43;;
72415;Laerm;60995;52.154;4.498;2023-06-01T09:11:04;50.30;42.46;57.93;;
72415;Laerm;60995;52.154;4.498;2023-06-01T09:13:41;50.57;40.91;61.94;;
72415;Laerm;60995;52.154;4.498;2023-06-01T09:15:57;50.28;41.32;57.76;;
72415;Laerm;60995;52.154;4.498;2023-06-01T09:18:14;49.78;42.59;58.11;;
72415;Laerm;60995;52.154;4.498;2023-06-01T09:20:31;51.34;40.00;69.27;;
72415;Laerm;60995;52.154;4.498;2023-06-01T09:22:48;49.14;40.68;64.36;;
72415;Laerm;60995;52.154;4.498;2023-06-01T09:25:04;50.26;41.62;66.73;;
72415;Laerm;60995;52.154;4.498;2023-06-01T09:27:21;50.41;40.78;58.25;;
72415;Laerm;60995;52.154;4.498;2023-06-01T09:29:37;50.09;41.27;66.04;;
72415;Laerm;60995;52.154;4.498;2023-06-01T09:31:55;50.48;41.17;63.67;;
72415;Laerm;60995;52.154;4.498;2023-06-01T09:34:17;50.19;42.01;65.85;;
72415;Laerm;60995;52.154;4.498;2023-06-01T09:36:39;50.27;41.56;70.26;;
72415;Laerm;60995;52.154;4.498;2023-06-01T09:39:06;50.79;42.51;61.30;;
72415;Laerm;60995;52.154;4.498;2023-06-01T09:41:23;49.95;41.53;58.34;;
72415;Laerm;60995;52.154;4.498;2023-06-01T09:43:43;50.14;41.27;67.17;;
72415;Laerm;60995;52.154;4.498;2023-06-01T09:46:08;51.12;39.75;64.47;;
72415;Laerm;60995;52.154;4.498;2023-06-01T09:48:25;49.36;40.16;65.66;;
72415;Laerm;60995;52.154;4.498;2023-06-01T09:50:45;52.27;41.97;78.04;;
72415;Laerm;60995;52.154;4.498;2023-06-01T09:53:04;49.53;42.33;57.37;;
72415;Laerm;60995;52.154;4.498;2023-06-01T09:55:20;49.33;39.95;56.49;;
72415;Laerm;60995;52.154;4.498;2023-06-01T09:57:37;51.88;40.43;67.14;;
72415;Laerm;60995;52.154;4.498;2023-06-01T09:59:53;51.36;41.47;62.73;;
72415;Laerm;60995;52.154;4.498;2023-06-01T10:02:17;49.50;41.65;58.23;;
72415;Laerm;60995;52.154;4.498;2023-06-01T10:04:39;49.14;41.97;58.01;;
72415;Laerm;60995;52.154;4.498;2023-06-01T10:06:57;49.76;40.33;61.69;;
72415;Laerm;60995;52.154;4.498;2023-06-01T10:09:15;48.91;40.37;57.46;;
72415;Laerm;60995;52.154;4.498;2023-06-01T10:11:34;51.54;41.39;65.32;;
72415;Laerm;60995;52.154;4.498;2023-06-01T10:13:51;50.61;41.85;62.51;;
72415;Laerm;60995;52.154;4.498;2023-06-01T10:16:07;49.10;41.16;59.44;;
72415;Laerm;60995;52.154;4.498;2023-06-01T10:18:24;48.04;39.68;56.94;;
72415;Laerm;60995;52.154;4.498;2023-06-01T10:20:42;49.78;40.32;57.86;;
72415;Laerm;60995;52.154;4.498;2023-06-01T10:23:00;50.04;40.71;56.76;;
72415;Laerm;60995;52.154;4.498;2023-06-01T10:25:20;57.09;44.35;70.66;;
72415;Laerm;60995;52.154;4.498;2023-06-01T10:27:50;50.38;39.88;64.17;;
72415;Laerm;60995;52.154;4.498;2023-06-01T10:30:09;49.65;41.10;62.28;;
72415;Laerm;60995;52.154;4.498;2023-06-01T10:32:48;49.98;41.00;59.26;;
72415;Laerm;60995;52.154;4.498;2023-06-01T10:35:07;50.17;40.57;64.60;;
72415;Laerm;60995;52.154;4.498;2023-06-01T10:37:24;49.79;39.30;61.78;;
72415;Laerm;60995;52.154;4.498;2023-06-01T10:39:41;50.30;40.70;61.55;;
72415;Laerm;60995;52.154;4.498;2023-06-01T10:46:58;59.71;42.08;76.32;;
72415;Laerm;60995;52.154;4.498;2023-06-01T10:49:15;50.62;39.21;68.21;;
72415;Laerm;60995;52.154;4.498;2023-06-01T10:51:33;50.20;40.52;64.13;;
72415;Laerm;60995;52.154;4.498;2023-06-01T10:53:50;49.68;42.24;59.24;;
72415;Laerm;60995;52.154;4.498;2023-06-01T10:56:33;49.67;41.01;69.42;;
72415;Laerm;60995;52.154;4.498;2023-06-01T11:01:25;52.76;44.37;69.83;;
72415;Laerm;60995;52.154;4.498;2023-06-01T11:03:47;50.45;40.99;62.78;;
72415;Laerm;60995;52.154;4.498;2023-06-01T11:06:23;50.18;40.70;62.98;;
72415;Laerm;60995;52.154;4.498;2023-06-01T11:11:05;50.92;40.78;67.58;;
72415;Laerm;60995;52.154;4.498;2023-06-01T11:13:29;49.26;40.44;66.49;;
72415;Laerm;60995;52.154;4.498;2023-06-01T11:18:43;51.02;40.29;75.03;;
72415;Laerm;60995;52.154;4.498;2023-06-01T11:21:00;49.69;41.46;60.56;;
72415;Laerm;60995;52.154;4.498;2023-06-01T11:23:19;51.87;42.68;63.36;;
72415;Laerm;60995;52.154;4.498;2023-06-01T11:25:36;50.50;42.92;59.60;;
72415;Laerm;60995;52.154;4.498;2023-06-01T11:27:54;50.20;41.98;58.74;;
72415;Laerm;60995;52.154;4.498;2023-06-01T11:30:11;50.19;41.78;72.27;;
72415;Laerm;60995;52.154;4.498;2023-06-01T11:32:31;51.32;41.68;68.23;;
72415;Laerm;60995;52.154;4.498;2023-06-01T11:34:48;52.27;41.03;62.10;;
72415;Laerm;60995;52.154;4.498;2023-06-01T11:37:12;49.07;41.41;57.03;;
72415;Laerm;60995;52.154;4.498;2023-06-01T11:39:29;48.84;41.01;69.12;;
72415;Laerm;60995;52.154;4.498;2023-06-01T11:41:50;50.02;42.35;62.47;;
72415;Laerm;60995;52.154;4.498;2023-06-01T11:44:07;48.93;39.55;61.38;;
72415;Laerm;60995;52.154;4.498;2023-06-01T11:46:25;51.37;43.06;75.06;;
72415;Laerm;60995;52.154;4.498;2023-06-01T11:49:16;49.10;41.15;58.50;;
72415;Laerm;60995;52.154;4.498;2023-06-01T11:51:37;49.57;42.54;60.41;;
72415;Laerm;60995;52.154;4.498;2023-06-01T11:53:55;52.05;42.15;71.13;;
72415;Laerm;60995;52.154;4.498;2023-06-01T11:56:12;51.22;41.84;61.18;;
72415;Laerm;60995;52.154;4.498;2023-06-01T11:58:30;49.49;41.14;66.37;;
72415;Laerm;60995;52.154;4.498;2023-06-01T12:00:46;49.90;43.08;65.79;;
72415;Laerm;60995;52.154;4.498;2023-06-01T12:03:06;49.03;41.89;61.68;;
72415;Laerm;60995;52.154;4.498;2023-06-01T12:05:23;49.50;38.29;75.33;;
72415;Laerm;60995;52.154;4.498;2023-06-01T12:10:01;50.40;42.74;66.76;;
72415;Laerm;60995;52.154;4.498;2023-06-01T12:12:18;49.77;41.67;57.24;;
72415;Laerm;60995;52.154;4.498;2023-06-01T12:14:34;54.90;41.76;71.65;;
72415;Laerm;60995;52.154;4.498;2023-06-01T12:16:59;48.85;41.97;56.74;;
72415;Laerm;60995;52.154;4.498;2023-06-01T12:19:19;63.81;44.85;81.11;;
72415;Laerm;60995;52.154;4.498;2023-06-01T12:21:37;60.72;40.62;77.37;;
72415;Laerm;60995;52.154;4.498;2023-06-01T12:23:53;49.11;39.10;61.24;;
72415;Laerm;60995;52.154;4.498;2023-06-01T12:26:10;51.88;40.62;73.44;;
72415;Laerm;60995;52.154;4.498;2023-06-01T12:28:27;52.68;43.48;72.37;;
72415;Laerm;60995;52.154;4.498;2023-06-01T12:31:12;52.29;42.03;70.25;;
72415;Laerm;60995;52.154;4.498;2023-06-01T12:33:36;49.75;40.92;66.18;;
72415;Laerm;60995;52.154;4.498;2023-06-01T12:35:52;50.66;42.38;66.31;;
72415;Laerm;60995;52.154;4.498;2023-06-01T12:38:10;48.52;40.31;62.68;;
72415;Laerm;60995;52.154;4.498;2023-06-01T12:40:27;49.90;41.45;63.97;;
72415;Laerm;60995;52.154;4.498;2023-06-01T12:42:44;48.46;40.85;54.61;;
72415;Laerm;60995;52.154;4.498;2023-06-01T12:45:01;51.11;43.51;67.80;;
72415;Laerm;60995;52.154;4.498;2023-06-01T12:47:19;50.79;41.23;63.45;;
72415;Laerm;60995;52.154;4.498;2023-06-01T12:49:36;49.37;42.47;59.49;;
72415;Laerm;60995;52.154;4.498;2023-06-01T12:51:54;51.09;41.10;73.84;;
72415;Laerm;60995;52.154;4.498;2023-06-01T12:54:10;49.16;41.98;56.88;;
72415;Laerm;60995;52.154;4.498;2023-06-01T12:56:28;48.03;40.57;57.94;;
72415;Laerm;60995;52.154;4.498;2023-06-01T12:58:46;48.72;40.44;62.20;;
72415;Laerm;60995;52.154;4.498;2023-06-01T13:01:03;49.19;40.86;56.50;;
72415;Laerm;60995;52.154;4.498;2023-06-01T13:03:19;51.27;42.09;67.43;;
72415;Laerm;60995;52.154;4.498;2023-06-01T13:05:41;51.01;41.91;63.89;;
72415;Laerm;60995;52.154;4.498;2023-06-01T13:08:03;50.54;42.20;61.70;;
72415;Laerm;60995;52.154;4.498;2023-06-01T13:10:22;49.50;43.15;61.87;;
72415;Laerm;60995;52.154;4.498;2023-06-01T13:12:39;48.17;40.24;61.41;;
72415;Laerm;60995;52.154;4.498;2023-06-01T13:14:58;49.74;41.31;67.07;;
72415;Laerm;60995;52.154;4.498;2023-06-01T13:17:16;50.07;41.16;67.06;;
72415;Laerm;60995;52.154;4.498;2023-06-01T13:19:32;50.46;42.92;64.05;;
72415;Laerm;60995;52.154;4.498;2023-06-01T13:21:49;51.13;41.96;72.08;;
72415;Laerm;60995;52.154;4.498;2023-06-01T13:24:06;52.22;40.62;70.26;;
72415;Laerm;60995;52.154;4.498;2023-06-01T13:26:23;49.57;40.48;62.81;;
72415;Laerm;60995;52.154;4.498;2023-06-01T13:28:41;49.05;40.31;61.09;;
72415;Laerm;60995;52.154;4.498;2023-06-01T13:30:58;49.48;41.44;59.32;;
72415;Laerm;60995;52.154;4.498;2023-06-01T13:33:14;50.16;40.00;62.80;;